createdAt,value
2017-07-04T00:00:52.502Z,0
2017-07-04T00:01:53.925Z,0
2017-07-04T00:02:55.350Z,0
2017-07-04T00:03:56.775Z,0
2017-07-04T00:04:58.200Z,0
2017-07-04T00:05:59.634Z,0
2017-07-04T00:07:01.056Z,0
2017-07-04T00:08:02.484Z,0
2017-07-04T00:09:03.919Z,0
2017-07-04T00:10:05.344Z,0
2017-07-04T00:11:06.775Z,0
2017-07-04T00:12:08.202Z,0
2017-07-04T00:13:09.632Z,0
2017-07-04T00:14:11.052Z,0
2017-07-04T00:15:12.476Z,0
2017-07-04T00:16:13.909Z,0
2017-07-04T00:17:15.337Z,0
2017-07-04T00:18:16.758Z,0
2017-07-04T00:19:18.194Z,0
2017-07-04T00:20:19.609Z,0
2017-07-04T00:21:21.035Z,0
2017-07-04T00:22:22.457Z,0
2017-07-04T00:23:23.881Z,0
2017-07-04T00:24:25.302Z,0
2017-07-04T00:25:26.722Z,0
2017-07-04T00:26:28.145Z,0
2017-07-04T00:27:29.578Z,0
2017-07-04T00:28:31.034Z,0
2017-07-04T00:29:32.466Z,0
2017-07-04T00:30:33.891Z,0
2017-07-04T00:31:35.320Z,0
2017-07-04T00:32:36.737Z,0
2017-07-04T00:33:38.168Z,0
2017-07-04T00:34:39.585Z,0
2017-07-04T00:35:41.001Z,0
2017-07-04T00:36:42.427Z,0
2017-07-04T00:37:43.849Z,0
2017-07-04T00:38:45.284Z,0
2017-07-04T00:39:46.716Z,0
2017-07-04T00:40:48.136Z,0
2017-07-04T00:41:49.557Z,0
2017-07-04T00:42:50.976Z,0
2017-07-04T00:43:52.395Z,0
2017-07-04T00:44:53.824Z,0
2017-07-04T00:45:55.239Z,0
2017-07-04T00:46:56.681Z,0
2017-07-04T00:47:58.105Z,0
2017-07-04T00:48:59.535Z,0
2017-07-04T00:50:00.960Z,0
2017-07-04T00:51:02.387Z,0
2017-07-04T00:52:03.825Z,0
2017-07-04T00:53:05.246Z,0
2017-07-04T00:54:06.676Z,0
2017-07-04T00:55:08.098Z,0
2017-07-04T00:56:09.517Z,0
2017-07-04T00:57:10.946Z,0
2017-07-04T00:58:12.371Z,0
2017-07-04T00:59:13.790Z,0
2017-07-04T01:00:15.214Z,0
2017-07-04T01:01:16.634Z,0
2017-07-04T01:02:18.055Z,0
2017-07-04T01:03:19.474Z,0
2017-07-04T01:04:20.896Z,0
2017-07-04T01:05:22.321Z,0
2017-07-04T01:06:23.745Z,0
2017-07-04T01:07:25.167Z,0
2017-07-04T01:08:26.580Z,0
2017-07-04T01:09:28.007Z,0
2017-07-04T01:10:29.436Z,0
2017-07-04T01:11:30.858Z,0
2017-07-04T01:12:32.280Z,0
2017-07-04T01:13:33.699Z,0
2017-07-04T01:14:35.118Z,0
2017-07-04T01:15:36.543Z,0
2017-07-04T01:16:37.971Z,0
2017-07-04T01:17:39.393Z,0
2017-07-04T01:18:40.840Z,0
2017-07-04T01:19:42.267Z,0
2017-07-04T01:20:43.685Z,0
2017-07-04T01:21:45.114Z,0
2017-07-04T01:22:46.541Z,0
2017-07-04T01:23:47.963Z,0
2017-07-04T01:24:49.377Z,0
2017-07-04T01:25:50.802Z,0
2017-07-04T01:26:52.249Z,0
2017-07-04T01:27:53.677Z,0
2017-07-04T01:28:55.771Z,0
2017-07-04T01:29:57.193Z,0
2017-07-04T01:30:58.617Z,0
2017-07-04T01:32:00.041Z,0
2017-07-04T01:33:01.474Z,0
2017-07-04T01:34:02.895Z,0
2017-07-04T01:35:04.323Z,0
2017-07-04T01:36:06.272Z,0
2017-07-04T01:37:07.705Z,0
2017-07-04T01:38:09.125Z,0
2017-07-04T01:39:10.543Z,0
2017-07-04T01:40:11.968Z,0
2017-07-04T01:41:13.394Z,0
2017-07-04T01:42:14.833Z,0
2017-07-04T01:43:16.248Z,0
2017-07-04T01:44:17.671Z,0
2017-07-04T01:45:19.098Z,0
2017-07-04T01:46:20.517Z,0
2017-07-04T01:47:21.931Z,0
2017-07-04T01:48:23.357Z,0
2017-07-04T01:49:24.778Z,0
2017-07-04T01:50:26.200Z,0
2017-07-04T01:51:27.626Z,0
2017-07-04T01:52:29.057Z,0
2017-07-04T01:53:30.476Z,0
2017-07-04T01:54:31.892Z,0
2017-07-04T01:55:33.319Z,0
2017-07-04T01:56:34.739Z,0
2017-07-04T01:57:36.161Z,0
2017-07-04T01:58:37.585Z,0
2017-07-04T01:59:39.011Z,0
2017-07-04T02:00:40.435Z,0
2017-07-04T02:01:41.937Z,0
2017-07-04T02:02:43.363Z,0
2017-07-04T02:03:44.787Z,0
2017-07-04T02:04:46.207Z,0
2017-07-04T02:05:47.688Z,0
2017-07-04T02:06:49.114Z,0
2017-07-04T02:07:50.572Z,0
2017-07-04T02:08:52.712Z,0
2017-07-04T02:09:54.137Z,0
2017-07-04T02:10:55.551Z,0
2017-07-04T02:11:56.980Z,0
2017-07-04T02:12:58.407Z,0
2017-07-04T02:13:59.814Z,0
2017-07-04T02:15:01.235Z,0
2017-07-04T02:16:02.662Z,0
2017-07-04T02:17:04.084Z,0
2017-07-04T02:18:05.504Z,0
2017-07-04T02:19:06.939Z,0
2017-07-04T02:20:08.364Z,0
2017-07-04T02:21:09.782Z,0
2017-07-04T02:22:11.204Z,0
2017-07-04T02:23:12.635Z,0
2017-07-04T02:24:14.067Z,0
2017-07-04T02:25:15.497Z,0
2017-07-04T02:26:16.922Z,0
2017-07-04T02:27:18.338Z,0
2017-07-04T02:28:19.759Z,0
2017-07-04T02:29:21.186Z,0
2017-07-04T02:30:22.608Z,0
2017-07-04T02:31:24.037Z,0
2017-07-04T02:32:25.477Z,0
2017-07-04T02:33:26.905Z,0
2017-07-04T02:34:28.325Z,0
2017-07-04T02:35:29.745Z,0
2017-07-04T02:36:31.177Z,0
2017-07-04T02:37:32.605Z,0
2017-07-04T02:38:34.026Z,0
2017-07-04T02:39:35.453Z,0
2017-07-04T02:40:36.871Z,0
2017-07-04T02:41:38.293Z,0
2017-07-04T02:42:39.725Z,0
2017-07-04T02:43:41.141Z,0
2017-07-04T02:44:42.572Z,0
2017-07-04T02:45:43.996Z,0
2017-07-04T02:46:45.425Z,0
2017-07-04T02:47:46.850Z,0
2017-07-04T02:48:48.272Z,0
2017-07-04T02:49:49.697Z,0
2017-07-04T02:50:51.115Z,0
2017-07-04T02:51:52.538Z,0
2017-07-04T02:52:53.967Z,4
2017-07-04T02:53:55.392Z,4
2017-07-04T02:54:56.813Z,0
2017-07-04T02:55:58.269Z,0
2017-07-04T02:56:59.647Z,0
2017-07-04T02:58:01.084Z,0
2017-07-04T02:59:02.507Z,0
2017-07-04T03:00:03.928Z,0
2017-07-04T03:01:05.344Z,4
2017-07-04T03:02:06.765Z,4
2017-07-04T03:03:08.189Z,0
2017-07-04T03:04:09.615Z,0
2017-07-04T03:05:11.044Z,4
2017-07-04T03:06:12.462Z,0
2017-07-04T03:07:13.888Z,4
2017-07-04T03:08:15.314Z,4
2017-07-04T03:09:16.732Z,4
2017-07-04T03:10:18.156Z,4
2017-07-04T03:11:19.582Z,4
2017-07-04T03:12:21.003Z,4
2017-07-04T03:13:22.426Z,4
2017-07-04T03:14:23.851Z,4
2017-07-04T03:15:25.285Z,8
2017-07-04T03:16:26.703Z,4
2017-07-04T03:17:28.125Z,4
2017-07-04T03:18:29.546Z,8
2017-07-04T03:19:30.966Z,12
2017-07-04T03:20:32.382Z,8
2017-07-04T03:21:33.806Z,12
2017-07-04T03:22:35.230Z,16
2017-07-04T03:23:36.654Z,20
2017-07-04T03:24:38.077Z,20
2017-07-04T03:25:39.497Z,20
2017-07-04T03:26:40.917Z,16
2017-07-04T03:27:42.357Z,12
2017-07-04T03:28:43.781Z,12
2017-07-04T03:29:45.206Z,16
2017-07-04T03:30:46.628Z,16
2017-07-04T03:31:48.057Z,16
2017-07-04T03:32:49.489Z,20
2017-07-04T03:33:50.905Z,20
2017-07-04T03:34:52.331Z,24
2017-07-04T03:35:53.873Z,24
2017-07-04T03:36:55.304Z,20
2017-07-04T03:37:56.724Z,20
2017-07-04T03:38:58.154Z,16
2017-07-04T03:39:59.580Z,24
2017-07-04T03:41:01.007Z,28
2017-07-04T03:42:02.441Z,36
2017-07-04T03:43:03.873Z,36
2017-07-04T03:44:05.296Z,44
2017-07-04T03:45:06.720Z,52
2017-07-04T03:46:08.144Z,60
2017-07-04T03:47:09.564Z,68
2017-07-04T03:48:10.994Z,76
2017-07-04T03:49:12.425Z,100
2017-07-04T03:50:13.847Z,104
2017-07-04T03:51:15.277Z,88
2017-07-04T03:52:16.693Z,88
2017-07-04T03:53:18.113Z,92
2017-07-04T03:54:19.532Z,88
2017-07-04T03:55:20.948Z,100
2017-07-04T03:56:22.377Z,108
2017-07-04T03:57:23.804Z,108
2017-07-04T03:58:25.228Z,104
2017-07-04T03:59:26.657Z,104
2017-07-04T04:00:28.078Z,104
2017-07-04T04:01:29.508Z,92
2017-07-04T04:02:30.927Z,96
2017-07-04T04:03:32.351Z,108
2017-07-04T04:04:33.777Z,100
2017-07-04T04:05:35.209Z,84
2017-07-04T04:06:36.647Z,80
2017-07-04T04:07:38.077Z,76
2017-07-04T04:08:39.503Z,72
2017-07-04T04:09:40.926Z,72
2017-07-04T04:10:42.350Z,84
2017-07-04T04:11:43.781Z,88
2017-07-04T04:12:45.269Z,96
2017-07-04T04:13:46.648Z,92
2017-07-04T04:14:48.072Z,84
2017-07-04T04:15:49.494Z,108
2017-07-04T04:16:50.919Z,124
2017-07-04T04:17:52.338Z,156
2017-07-04T04:18:53.777Z,180
2017-07-04T04:19:55.206Z,192
2017-07-04T04:20:56.632Z,196
2017-07-04T04:21:58.058Z,180
2017-07-04T04:22:59.482Z,156
2017-07-04T04:24:00.903Z,148
2017-07-04T04:25:02.337Z,156
2017-07-04T04:26:03.775Z,144
2017-07-04T04:27:05.221Z,136
2017-07-04T04:28:06.659Z,128
2017-07-04T04:29:08.089Z,132
2017-07-04T04:30:09.512Z,128
2017-07-04T04:31:10.933Z,120
2017-07-04T04:32:12.356Z,128
2017-07-04T04:33:13.805Z,132
2017-07-04T04:34:15.214Z,148
2017-07-04T04:35:16.640Z,164
2017-07-04T04:36:18.119Z,188
2017-07-04T04:37:19.550Z,192
2017-07-04T04:38:20.976Z,200
2017-07-04T04:39:22.415Z,192
2017-07-04T04:40:23.870Z,180
2017-07-04T04:41:25.298Z,176
2017-07-04T04:42:26.737Z,184
2017-07-04T04:43:28.158Z,176
2017-07-04T04:44:29.597Z,176
2017-07-04T04:45:31.026Z,164
2017-07-04T04:46:32.449Z,180
2017-07-04T04:47:33.987Z,196
2017-07-04T04:48:35.430Z,212
2017-07-04T04:49:36.858Z,244
2017-07-04T04:50:38.289Z,272
2017-07-04T04:51:39.749Z,256
2017-07-04T04:52:41.177Z,252
2017-07-04T04:53:42.604Z,244
2017-07-04T04:54:44.058Z,256
2017-07-04T04:55:45.504Z,296
2017-07-04T04:56:46.929Z,340
2017-07-04T04:57:48.353Z,316
2017-07-04T04:58:49.886Z,244
2017-07-04T04:59:51.316Z,200
2017-07-04T05:00:52.746Z,188
2017-07-04T05:01:54.174Z,220
2017-07-04T05:02:55.614Z,228
2017-07-04T05:03:57.047Z,172
2017-07-04T05:04:58.476Z,144
2017-07-04T05:05:59.912Z,132
2017-07-04T05:07:01.432Z,120
2017-07-04T05:08:02.861Z,108
2017-07-04T05:09:04.285Z,104
2017-07-04T05:10:05.740Z,128
2017-07-04T05:11:07.163Z,164
2017-07-04T05:12:08.601Z,188
2017-07-04T05:13:10.029Z,240
2017-07-04T05:14:11.461Z,360
2017-07-04T05:15:12.890Z,488
2017-07-04T05:16:14.331Z,504
2017-07-04T05:17:15.772Z,432
2017-07-04T05:18:17.205Z,420
2017-07-04T05:19:18.639Z,444
2017-07-04T05:20:20.197Z,548
2017-07-04T05:21:21.654Z,664
2017-07-04T05:22:23.079Z,740
2017-07-04T05:23:24.502Z,796
2017-07-04T05:24:25.962Z,696
2017-07-04T05:25:27.391Z,492
2017-07-04T05:26:28.813Z,368
2017-07-04T05:27:30.238Z,324
2017-07-04T05:28:31.720Z,292
2017-07-04T05:29:33.159Z,284
2017-07-04T05:30:34.583Z,300
2017-07-04T05:31:36.091Z,320
2017-07-04T05:32:37.528Z,328
2017-07-04T05:33:38.965Z,328
2017-07-04T05:34:40.402Z,304
2017-07-04T05:35:41.833Z,300
2017-07-04T05:36:43.270Z,288
2017-07-04T05:37:44.700Z,292
2017-07-04T05:38:46.137Z,336
2017-07-04T05:39:47.564Z,396
2017-07-04T05:40:48.994Z,360
2017-07-04T05:41:50.418Z,396
2017-07-04T05:42:51.866Z,416
2017-07-04T05:43:53.299Z,464
2017-07-04T05:44:54.729Z,520
2017-07-04T05:45:56.152Z,572
2017-07-04T05:46:57.579Z,696
2017-07-04T05:47:59.007Z,780
2017-07-04T05:49:00.431Z,648
2017-07-04T05:50:01.858Z,564
2017-07-04T05:51:03.295Z,592
2017-07-04T05:52:04.724Z,648
2017-07-04T05:53:06.147Z,748
2017-07-04T05:54:07.581Z,872
2017-07-04T05:55:09.003Z,984
2017-07-04T05:56:10.431Z,1008
2017-07-04T05:57:11.857Z,948
2017-07-04T05:58:13.290Z,896
2017-07-04T05:59:14.718Z,920
2017-07-04T06:00:16.151Z,968
2017-07-04T06:01:17.585Z,1148
2017-07-04T06:02:19.012Z,1232
2017-07-04T06:03:20.459Z,1088
2017-07-04T06:04:21.891Z,892
2017-07-04T06:05:23.324Z,884
2017-07-04T06:06:24.746Z,976
2017-07-04T06:07:26.179Z,1024
2017-07-04T06:08:27.613Z,1004
2017-07-04T06:09:29.033Z,1000
2017-07-04T06:10:30.460Z,1000
2017-07-04T06:11:31.889Z,1036
2017-07-04T06:12:33.316Z,1032
2017-07-04T06:13:34.742Z,1052
2017-07-04T06:14:36.166Z,1092
2017-07-04T06:15:37.596Z,1264
2017-07-04T06:16:39.029Z,1416
2017-07-04T06:17:40.458Z,1304
2017-07-04T06:18:41.891Z,1216
2017-07-04T06:19:43.316Z,1116
2017-07-04T06:20:44.743Z,1020
2017-07-04T06:21:46.167Z,956
2017-07-04T06:22:47.611Z,952
2017-07-04T06:23:49.057Z,1040
2017-07-04T06:24:50.458Z,1128
2017-07-04T06:25:51.884Z,1296
2017-07-04T06:26:53.310Z,1380
2017-07-04T06:27:54.737Z,1236
2017-07-04T06:28:56.165Z,1028
2017-07-04T06:29:57.601Z,968
2017-07-04T06:30:59.040Z,1020
2017-07-04T06:32:00.573Z,1188
2017-07-04T06:33:02.000Z,1240
2017-07-04T06:34:04.142Z,1244
2017-07-04T06:35:05.570Z,1236
2017-07-04T06:36:07.001Z,1168
2017-07-04T06:37:08.426Z,1264
2017-07-04T06:38:09.860Z,1204
2017-07-04T06:39:11.286Z,976
2017-07-04T06:40:12.708Z,968
2017-07-04T06:41:14.132Z,1140
2017-07-04T06:42:15.564Z,1236
2017-07-04T06:43:17.341Z,1272
2017-07-04T06:44:18.371Z,1316
2017-07-04T06:45:19.801Z,1360
2017-07-04T06:46:21.225Z,1460
2017-07-04T06:47:22.660Z,1336
2017-07-04T06:48:24.086Z,1288
2017-07-04T06:49:25.519Z,1240
2017-07-04T06:50:26.953Z,1180
2017-07-04T06:51:28.377Z,1036
2017-07-04T06:52:29.812Z,1360
2017-07-04T06:53:31.242Z,1544
2017-07-04T06:54:32.684Z,1436
2017-07-04T06:55:34.116Z,1348
2017-07-04T06:56:35.538Z,1160
2017-07-04T06:57:36.972Z,1024
2017-07-04T06:58:38.411Z,1044
2017-07-04T06:59:39.837Z,1184
2017-07-04T07:00:41.271Z,1220
2017-07-04T07:01:42.702Z,1304
2017-07-04T07:02:44.128Z,1476
2017-07-04T07:03:45.555Z,1496
2017-07-04T07:04:46.980Z,1164
2017-07-04T07:05:48.418Z,1272
2017-07-04T07:06:49.840Z,1324
2017-07-04T07:07:51.280Z,1468
2017-07-04T07:08:52.712Z,1380
2017-07-04T07:09:54.139Z,1160
2017-07-04T07:10:55.562Z,1052
2017-07-04T07:11:56.992Z,1076
2017-07-04T07:12:58.426Z,1092
2017-07-04T07:13:59.849Z,1200
2017-07-04T07:15:01.274Z,1084
2017-07-04T07:16:02.710Z,964
2017-07-04T07:17:04.139Z,940
2017-07-04T07:18:05.570Z,892
2017-07-04T07:19:06.997Z,796
2017-07-04T07:20:08.432Z,756
2017-07-04T07:21:09.852Z,740
2017-07-04T07:22:11.295Z,668
2017-07-04T07:23:12.719Z,676
2017-07-04T07:24:14.150Z,752
2017-07-04T07:25:15.575Z,868
2017-07-04T07:26:16.996Z,1124
2017-07-04T07:27:18.421Z,1228
2017-07-04T07:28:19.846Z,1324
2017-07-04T07:29:21.319Z,1256
2017-07-04T07:30:22.707Z,1212
2017-07-04T07:31:24.129Z,1388
2017-07-04T07:32:25.561Z,1560
2017-07-04T07:33:26.990Z,1536
2017-07-04T07:34:28.425Z,1656
2017-07-04T07:35:29.889Z,1740
2017-07-04T07:36:31.314Z,1732
2017-07-04T07:37:32.750Z,1848
2017-07-04T07:38:34.185Z,1884
2017-07-04T07:39:35.625Z,1928
2017-07-04T07:40:37.108Z,1944
2017-07-04T07:41:38.629Z,1996
2017-07-04T07:42:40.060Z,1976
2017-07-04T07:43:41.494Z,1944
2017-07-04T07:44:42.931Z,1960
2017-07-04T07:45:44.364Z,2064
2017-07-04T07:46:45.790Z,2016
2017-07-04T07:47:47.224Z,1940
2017-07-04T07:48:48.658Z,1984
2017-07-04T07:49:50.098Z,1956
2017-07-04T07:50:51.527Z,1988
2017-07-04T07:51:52.956Z,2072
2017-07-04T07:52:54.382Z,2020
2017-07-04T07:53:55.812Z,1800
2017-07-04T07:54:57.240Z,1812
2017-07-04T07:55:58.675Z,1900
2017-07-04T07:57:00.113Z,2004
2017-07-04T07:58:01.588Z,1764
2017-07-04T07:59:03.021Z,1976
2017-07-04T08:00:04.445Z,2060
2017-07-04T08:01:05.877Z,2008
2017-07-04T08:02:07.321Z,2124
2017-07-04T08:03:08.748Z,2368
2017-07-04T08:04:10.176Z,2224
2017-07-04T08:05:11.606Z,2180
2017-07-04T08:06:13.033Z,2260
2017-07-04T08:07:14.471Z,2136
2017-07-04T08:08:15.899Z,2332
2017-07-04T08:09:17.340Z,2328
2017-07-04T08:10:18.771Z,2048
2017-07-04T08:11:20.202Z,1880
2017-07-04T08:12:21.649Z,1656
2017-07-04T08:13:23.079Z,1736
2017-07-04T08:14:24.504Z,2020
2017-07-04T08:15:25.927Z,2184
2017-07-04T08:16:27.362Z,2304
2017-07-04T08:17:28.801Z,2396
2017-07-04T08:18:30.224Z,2220
2017-07-04T08:19:31.656Z,2212
2017-07-04T08:20:33.078Z,1948
2017-07-04T08:21:34.510Z,2248
2017-07-04T08:22:35.949Z,2336
2017-07-04T08:23:37.385Z,2312
2017-07-04T08:24:38.817Z,1896
2017-07-04T08:25:40.245Z,1520
2017-07-04T08:26:41.682Z,1344
2017-07-04T08:27:43.110Z,1296
2017-07-04T08:28:44.536Z,1216
2017-07-04T08:29:45.966Z,1176
2017-07-04T08:30:47.415Z,1068
2017-07-04T08:31:48.877Z,980
2017-07-04T08:32:50.295Z,1116
2017-07-04T08:33:51.725Z,1132
2017-07-04T08:34:53.163Z,1128
2017-07-04T08:35:54.579Z,964
2017-07-04T08:36:56.007Z,1020
2017-07-04T08:37:57.440Z,1160
2017-07-04T08:38:58.870Z,1248
2017-07-04T08:40:00.300Z,1264
2017-07-04T08:41:01.737Z,1400
2017-07-04T08:42:03.163Z,1416
2017-07-04T08:43:04.596Z,1356
2017-07-04T08:44:06.033Z,1356
2017-07-04T08:45:07.464Z,1348
2017-07-04T08:46:08.898Z,1408
2017-07-04T08:47:10.332Z,1744
2017-07-04T08:48:11.759Z,1932
2017-07-04T08:49:13.209Z,1852
2017-07-04T08:50:14.637Z,1876
2017-07-04T08:51:16.082Z,1980
2017-07-04T08:52:17.510Z,2092
2017-07-04T08:53:18.954Z,2108
2017-07-04T08:54:20.378Z,2172
2017-07-04T08:55:21.804Z,2336
2017-07-04T08:56:23.237Z,2500
2017-07-04T08:57:24.668Z,2700
2017-07-04T08:58:26.110Z,2708
2017-07-04T08:59:27.544Z,2316
2017-07-04T09:00:28.972Z,2216
2017-07-04T09:01:30.397Z,2412
2017-07-04T09:02:31.828Z,2536
2017-07-04T09:03:33.277Z,2556
2017-07-04T09:04:34.700Z,2316
2017-07-04T09:05:36.130Z,2272
2017-07-04T09:06:37.564Z,2292
2017-07-04T09:07:38.998Z,2080
2017-07-04T09:08:40.427Z,2300
2017-07-04T09:09:41.865Z,2772
2017-07-04T09:10:43.298Z,2220
2017-07-04T09:11:44.742Z,1904
2017-07-04T09:12:46.174Z,1984
2017-07-04T09:13:47.599Z,2104
2017-07-04T09:14:49.030Z,2148
2017-07-04T09:15:50.458Z,2264
2017-07-04T09:16:51.896Z,2620
2017-07-04T09:17:53.326Z,3084
2017-07-04T09:18:54.759Z,3060
2017-07-04T09:19:56.197Z,3012
2017-07-04T09:20:57.633Z,2576
2017-07-04T09:21:59.069Z,2336
2017-07-04T09:23:00.500Z,1960
2017-07-04T09:24:01.989Z,1764
2017-07-04T09:25:03.417Z,1772
2017-07-04T09:26:04.850Z,2588
2017-07-04T09:27:06.282Z,3072
2017-07-04T09:28:07.748Z,3428
2017-07-04T09:29:09.195Z,2944
2017-07-04T09:30:10.625Z,2224
2017-07-04T09:31:12.063Z,2120
2017-07-04T09:32:13.498Z,2416
2017-07-04T09:33:14.927Z,2528
2017-07-04T09:34:16.356Z,2400
2017-07-04T09:35:17.849Z,2508
2017-07-04T09:36:19.300Z,2388
2017-07-04T09:37:20.719Z,2780
2017-07-04T09:38:22.151Z,2476
2017-07-04T09:39:23.579Z,2676
2017-07-04T09:40:25.016Z,2464
2017-07-04T09:41:26.445Z,2812
2017-07-04T09:42:27.879Z,3160
2017-07-04T09:43:29.395Z,3108
2017-07-04T09:44:30.826Z,2484
2017-07-04T09:45:32.257Z,2248
2017-07-04T09:46:33.686Z,2440
2017-07-04T09:47:35.112Z,2332
2017-07-04T09:48:36.547Z,2016
2017-07-04T09:49:38.080Z,2068
2017-07-04T09:50:39.530Z,2284
2017-07-04T09:51:40.957Z,2316
2017-07-04T09:52:42.384Z,2184
2017-07-04T09:53:43.823Z,2188
2017-07-04T09:54:45.250Z,2596
2017-07-04T09:55:46.685Z,2896
2017-07-04T09:56:48.181Z,3080
2017-07-04T09:57:49.615Z,3400
2017-07-04T09:58:51.049Z,3496
2017-07-04T09:59:52.485Z,3300
2017-07-04T10:00:53.924Z,3004
2017-07-04T10:01:55.360Z,2972
2017-07-04T10:02:56.794Z,3024
2017-07-04T10:03:58.223Z,2948
2017-07-04T10:04:59.666Z,3212
2017-07-04T10:06:01.099Z,3036
2017-07-04T10:07:02.536Z,2852
2017-07-04T10:08:03.979Z,2764
2017-07-04T10:09:05.421Z,2664
2017-07-04T10:10:06.847Z,2228
2017-07-04T10:11:08.286Z,1960
2017-07-04T10:12:09.808Z,1856
2017-07-04T10:13:11.243Z,2036
2017-07-04T10:14:12.689Z,2076
2017-07-04T10:15:14.150Z,2580
2017-07-04T10:16:15.582Z,2768
2017-07-04T10:17:17.008Z,2728
2017-07-04T10:18:18.440Z,2728
2017-07-04T10:19:19.876Z,3432
2017-07-04T10:20:21.311Z,3796
2017-07-04T10:21:22.747Z,3616
2017-07-04T10:22:24.177Z,3540
2017-07-04T10:23:25.612Z,3356
2017-07-04T10:24:27.051Z,3024
2017-07-04T10:25:28.487Z,3020
2017-07-04T10:26:29.945Z,2816
2017-07-04T10:27:31.381Z,2528
2017-07-04T10:28:32.816Z,3188
2017-07-04T10:29:34.249Z,2952
2017-07-04T10:30:35.683Z,2668
2017-07-04T10:31:37.117Z,2420
2017-07-04T10:32:38.562Z,2416
2017-07-04T10:33:40.002Z,2908
2017-07-04T10:34:41.437Z,3172
2017-07-04T10:35:42.881Z,3744
2017-07-04T10:36:44.318Z,3568
2017-07-04T10:37:45.743Z,4332
2017-07-04T10:38:47.174Z,4464
2017-07-04T10:39:48.607Z,4768
2017-07-04T10:40:50.132Z,4260
2017-07-04T10:41:51.580Z,3792
2017-07-04T10:42:53.013Z,2844
2017-07-04T10:43:54.448Z,2320
2017-07-04T10:44:55.889Z,2060
2017-07-04T10:45:57.322Z,2048
2017-07-04T10:46:58.766Z,1980
2017-07-04T10:48:00.196Z,2080
2017-07-04T10:49:01.632Z,2024
2017-07-04T10:50:03.071Z,2244
2017-07-04T10:51:04.539Z,2100
2017-07-04T10:52:05.985Z,2452
2017-07-04T10:53:07.423Z,2812
2017-07-04T10:54:08.862Z,2968
2017-07-04T10:55:10.299Z,3020
2017-07-04T10:56:11.728Z,2976
2017-07-04T10:57:13.168Z,2700
2017-07-04T10:58:14.609Z,2736
2017-07-04T10:59:16.051Z,2744
2017-07-04T11:00:17.481Z,2560
2017-07-04T11:01:18.919Z,2300
2017-07-04T11:02:20.352Z,2616
2017-07-04T11:03:21.782Z,2376
2017-07-04T11:04:23.211Z,2412
2017-07-04T11:05:24.643Z,2296
2017-07-04T11:06:26.079Z,2268
2017-07-04T11:07:27.510Z,2324
2017-07-04T11:08:28.940Z,2316
2017-07-04T11:09:30.382Z,2228
2017-07-04T11:10:31.806Z,2236
2017-07-04T11:11:35.213Z,2108
2017-07-04T11:12:36.652Z,1904
2017-07-04T11:13:38.085Z,1600
2017-07-04T11:14:39.515Z,1460
2017-07-04T11:15:40.949Z,1396
2017-07-04T11:16:42.387Z,1428
2017-07-04T11:17:43.833Z,1160
2017-07-04T11:18:45.274Z,1084
2017-07-04T11:19:46.706Z,1108
2017-07-04T11:20:48.131Z,1152
2017-07-04T11:21:49.584Z,1112
2017-07-04T11:22:51.015Z,1300
2017-07-04T11:23:52.440Z,1228
2017-07-04T11:24:53.870Z,1224
2017-07-04T11:25:55.305Z,1348
2017-07-04T11:26:56.735Z,1200
2017-07-04T11:27:58.173Z,1196
2017-07-04T11:28:59.606Z,1300
2017-07-04T11:30:01.033Z,1460
2017-07-04T11:31:02.477Z,1740
2017-07-04T11:32:03.902Z,2148
2017-07-04T11:33:05.335Z,2524
2017-07-04T11:34:06.782Z,2896
2017-07-04T11:35:08.201Z,2712
2017-07-04T11:36:09.643Z,2844
2017-07-04T11:37:11.091Z,2588
2017-07-04T11:38:12.509Z,2660
2017-07-04T11:39:13.947Z,2916
2017-07-04T11:40:15.399Z,2948
2017-07-04T11:41:16.837Z,3276
2017-07-04T11:42:18.271Z,2900
2017-07-04T11:43:19.709Z,2524
2017-07-04T11:44:21.154Z,2320
2017-07-04T11:45:22.587Z,2276
2017-07-04T11:46:24.021Z,2416
2017-07-04T11:47:25.456Z,2372
2017-07-04T11:48:26.886Z,2008
2017-07-04T11:49:28.309Z,1548
2017-07-04T11:50:29.745Z,1252
2017-07-04T11:51:31.181Z,1220
2017-07-04T11:52:32.609Z,1476
2017-07-04T11:53:34.043Z,1696
2017-07-04T11:54:35.475Z,1604
2017-07-04T11:55:36.908Z,1440
2017-07-04T11:56:38.343Z,1392
2017-07-04T11:57:39.770Z,1360
2017-07-04T11:58:41.204Z,1272
2017-07-04T11:59:42.631Z,1320
2017-07-04T12:00:44.069Z,1372
2017-07-04T12:01:45.498Z,1516
2017-07-04T12:02:46.931Z,1972
2017-07-04T12:03:48.368Z,2536
2017-07-04T12:04:49.812Z,3676
2017-07-04T12:05:51.249Z,4604
2017-07-04T12:06:52.675Z,4668
2017-07-04T12:07:54.110Z,4708
2017-07-04T12:08:55.552Z,4604
2017-07-04T12:09:56.995Z,4292
2017-07-04T12:10:58.431Z,4400
2017-07-04T12:11:59.859Z,4660
2017-07-04T12:13:01.290Z,5500
2017-07-04T12:14:02.723Z,6012
2017-07-04T12:15:04.159Z,5676
2017-07-04T12:16:05.594Z,6344
2017-07-04T12:17:07.028Z,6716
2017-07-04T12:18:08.463Z,6832
2017-07-04T12:19:09.899Z,5816
2017-07-04T12:20:11.339Z,3996
2017-07-04T12:21:12.770Z,3912
2017-07-04T12:22:14.214Z,3864
2017-07-04T12:23:15.640Z,4020
2017-07-04T12:24:17.080Z,4612
2017-07-04T12:25:18.517Z,5196
2017-07-04T12:26:19.964Z,6152
2017-07-04T12:27:21.421Z,5404
2017-07-04T12:28:22.862Z,5868
2017-07-04T12:29:24.300Z,5680
2017-07-04T12:30:25.737Z,5628
2017-07-04T12:31:27.189Z,5248
2017-07-04T12:32:28.631Z,4724
2017-07-04T12:33:30.063Z,5048
2017-07-04T12:34:31.505Z,4648
2017-07-04T12:35:32.936Z,4284
2017-07-04T12:36:34.380Z,3700
2017-07-04T12:37:35.816Z,2884
2017-07-04T12:38:37.260Z,2572
2017-07-04T12:39:38.702Z,2684
2017-07-04T12:40:40.142Z,3016
2017-07-04T12:41:41.656Z,3244
2017-07-04T12:42:43.087Z,3336
2017-07-04T12:43:44.526Z,3448
2017-07-04T12:44:45.957Z,3536
2017-07-04T12:45:47.389Z,3728
2017-07-04T12:46:48.823Z,3348
2017-07-04T12:47:50.298Z,3228
2017-07-04T12:48:51.739Z,2792
2017-07-04T12:49:53.173Z,2396
2017-07-04T12:50:54.604Z,2072
2017-07-04T12:51:56.034Z,1696
2017-07-04T12:52:57.466Z,1772
2017-07-04T12:53:58.905Z,2400
2017-07-04T12:55:00.333Z,3052
2017-07-04T12:56:01.775Z,3176
2017-07-04T12:57:03.200Z,2884
2017-07-04T12:58:04.637Z,2404
2017-07-04T12:59:06.173Z,2704
2017-07-04T13:00:07.610Z,2340
2017-07-04T13:01:09.031Z,2304
2017-07-04T13:02:10.463Z,2152
2017-07-04T13:03:11.975Z,2132
2017-07-04T13:04:13.408Z,1784
2017-07-04T13:05:14.845Z,1692
2017-07-04T13:06:16.273Z,1696
2017-07-04T13:07:17.703Z,1636
2017-07-04T13:08:19.134Z,1516
2017-07-04T13:09:20.570Z,1468
2017-07-04T13:10:22.002Z,1488
2017-07-04T13:11:23.441Z,1600
2017-07-04T13:12:24.871Z,1504
2017-07-04T13:13:26.302Z,1444
2017-07-04T13:14:27.738Z,1388
2017-07-04T13:15:29.173Z,1356
2017-07-04T13:16:30.608Z,1464
2017-07-04T13:17:32.038Z,1392
2017-07-04T13:18:33.472Z,1380
2017-07-04T13:19:34.904Z,1292
2017-07-04T13:20:36.397Z,1368
2017-07-04T13:21:37.838Z,1532
2017-07-04T13:22:39.321Z,1496
2017-07-04T13:23:40.794Z,1384
2017-07-04T13:24:42.230Z,1392
2017-07-04T13:25:43.873Z,1264
2017-07-04T13:26:45.567Z,1164
2017-07-04T13:27:46.980Z,1112
2017-07-04T13:28:48.423Z,1140
2017-07-04T13:29:49.860Z,1124
2017-07-04T13:30:51.288Z,1196
2017-07-04T13:31:52.748Z,1352
2017-07-04T13:32:54.185Z,1280
2017-07-04T13:33:55.611Z,1200
2017-07-04T13:34:57.148Z,1256
2017-07-04T13:35:58.582Z,1336
2017-07-04T13:37:00.017Z,1312
2017-07-04T13:38:01.457Z,1336
2017-07-04T13:39:02.884Z,1264
2017-07-04T13:40:04.314Z,1240
2017-07-04T13:41:05.748Z,1252
2017-07-04T13:42:07.177Z,1280
2017-07-04T13:43:08.620Z,1244
2017-07-04T13:44:10.047Z,1364
2017-07-04T13:45:11.480Z,1348
2017-07-04T13:46:12.912Z,1272
2017-07-04T13:47:14.353Z,1316
2017-07-04T13:48:15.779Z,1364
2017-07-04T13:49:17.212Z,1328
2017-07-04T13:50:18.640Z,1384
2017-07-04T13:51:20.091Z,1412
2017-07-04T13:52:21.525Z,1496
2017-07-04T13:53:22.958Z,1524
2017-07-04T13:54:24.395Z,1460
2017-07-04T13:55:25.829Z,1488
2017-07-04T13:56:27.280Z,1784
2017-07-04T13:57:28.710Z,1720
2017-07-04T13:58:30.138Z,1876
2017-07-04T13:59:31.567Z,2204
2017-07-04T14:00:32.998Z,2004
2017-07-04T14:01:34.431Z,2000
2017-07-04T14:02:35.877Z,1936
2017-07-04T14:03:37.305Z,1872
2017-07-04T14:04:38.758Z,1940
2017-07-04T14:05:40.179Z,2364